Time;durP1;ratioP1;P1;durP2;ratioP2;P2;SDS_P1;SDS_P2;PMS_P1;PMS_P2;Temp;Humidity;BMP_temperature;BMP_pressure;BME280_temperature;BME280_humidity;BME280_pressure;Samples;Min_cycle;Max_cycle;Signal;HPM_P1;HPM_P2
2022/11/12 00:00:36;;;;;;;56.13;25.83;;;;;;;6.63;100.00;103220.19;5036245;28;20145;-77
2022/11/12 00:03:02;;;;;;;57.30;26.63;;;;;;;6.68;100.00;103226.16;5035166;28;20109;-77
2022/11/12 00:05:27;;;;;;;54.35;26.08;;;;;;;6.71;100.00;103223.41;5035319;28;20041;-77
2022/11/12 00:07:53;;;;;;;60.13;27.33;;;;;;;6.74;100.00;103219.78;5036135;28;20025;-78
2022/11/12 00:10:18;;;;;;;55.30;26.60;;;;;;;6.77;100.00;103219.69;5036086;28;20033;-78
2022/11/12 00:12:44;;;;;;;59.85;29.33;;;;;;;6.80;100.00;103222.22;5036303;28;20033;-78
2022/11/12 00:15:10;;;;;;;62.65;29.80;;;;;;;6.82;100.00;103224.81;5036389;28;20072;-79
2022/11/12 00:17:36;;;;;;;58.63;29.17;;;;;;;6.85;100.00;103227.34;5036441;28;20112;-78
2022/11/12 00:20:01;;;;;;;63.28;29.98;;;;;;;6.85;100.00;103220.28;5036803;28;20117;-77
2022/11/12 00:22:26;;;;;;;64.55;30.17;;;;;;;6.87;100.00;103225.50;5036291;28;20026;-77
2022/11/12 00:24:52;;;;;;;60.50;29.08;;;;;;;6.87;100.00;103215.78;5035787;28;20033;-77
2022/11/12 00:27:17;;;;;;;61.47;30.15;;;;;;;6.87;100.00;103221.06;5036184;28;20025;-78
2022/11/12 00:29:42;;;;;;;66.78;31.60;;;;;;;6.87;100.00;103222.88;5035917;28;20124;-78
2022/11/12 00:32:08;;;;;;;57.47;29.05;;;;;;;6.89;100.00;103224.50;5035329;28;20030;-77
2022/11/12 00:34:33;;;;;;;65.72;29.83;;;;;;;6.92;100.00;103228.84;5035440;28;20026;-78
2022/11/12 00:37:00;;;;;;;55.92;28.33;;;;;;;6.93;100.00;103227.06;5036267;28;20030;-77
2022/11/12 00:39:25;;;;;;;60.75;28.95;;;;;;;6.95;100.00;103234.03;5037280;28;20037;-79
2022/11/12 00:41:51;;;;;;;56.10;28.60;;;;;;;6.94;100.00;103231.44;5037467;28;20033;-76
2022/11/12 00:44:16;;;;;;;56.97;30.25;;;;;;;6.93;100.00;103220.00;5035828;28;20034;-78
2022/11/12 00:46:41;;;;;;;55.80;28.88;;;;;;;6.93;100.00;103221.78;5034791;28;20037;-78
2022/11/12 00:49:07;;;;;;;58.50;28.75;;;;;;;6.93;100.00;103225.28;5034795;28;20120;-78
2022/11/12 00:51:33;;;;;;;52.53;27.27;;;;;;;6.91;100.00;103227.09;5035497;28;20492;-78
2022/11/12 00:53:58;;;;;;;49.92;28.02;;;;;;;6.91;100.00;103229.75;5035695;28;20470;-78
2022/11/12 00:56:24;;;;;;;53.15;28.27;;;;;;;6.92;100.00;103218.25;5035128;28;20087;-78
2022/11/12 00:58:49;;;;;;;51.97;27.15;;;;;;;6.94;100.00;103218.19;5035274;28;20025;-78
2022/11/12 01:01:16;;;;;;;51.10;27.85;;;;;;;6.93;100.00;103220.00;5035110;28;20049;-77
2022/11/12 01:03:42;;;;;;;47.50;27.30;;;;;;;6.95;100.00;103218.13;5035384;28;20041;-78
2022/11/12 01:06:12;;;;;;;51.50;28.60;;;;;;;6.94;100.00;103213.78;5035034;28;20398;-78
2022/11/12 01:08:38;;;;;;;47.38;26.25;;;;;;;6.95;100.00;103212.00;5035225;28;20045;-78
2022/11/12 01:11:16;;;;;;;49.38;25.50;;;;;;;6.96;100.00;103221.66;5038089;28;20041;-78
2022/11/12 01:13:44;;;;;;;39.78;25.00;;;;;;;6.95;100.00;103210.19;5035322;28;20026;-78
2022/11/12 01:16:22;;;;;;;45.63;25.88;;;;;;;6.94;100.00;103212.91;5051244;28;20417;-77
2022/11/12 01:18:52;;;;;;;43.25;25.02;;;;;;;6.93;100.00;103217.34;5035049;28;20076;-78
2022/11/12 01:21:17;;;;;;;51.10;24.65;;;;;;;6.93;100.00;103219.13;5034966;28;20110;-78
2022/11/12 01:23:42;;;;;;;45.17;25.83;;;;;;;6.94;100.00;103223.50;5034724;28;20454;-79
2022/11/12 01:26:16;;;;;;;46.08;25.10;;;;;;;6.92;100.00;103223.53;5034626;28;20439;-78
2022/11/12 01:28:42;;;;;;;46.00;24.48;;;;;;;6.96;100.00;103221.66;5034697;28;20036;-79
2022/11/12 01:31:14;;;;;;;46.10;25.77;;;;;;;6.97;100.00;103236.59;5034975;28;20045;-79
2022/11/12 01:33:41;;;;;;;45.67;26.30;;;;;;;6.94;100.00;103232.31;5034873;28;20106;-79
2022/11/12 01:36:07;;;;;;;49.22;26.17;;;;;;;6.95;100.00;103241.09;5034646;28;20126;-80
2022/11/12 01:38:34;;;;;;;54.70;27.65;;;;;;;6.96;100.00;103235.75;5034579;28;20043;-80
2022/11/12 01:40:59;;;;;;;51.92;28.48;;;;;;;6.96;100.00;103233.09;5034467;28;20462;-77
2022/11/12 01:43:25;;;;;;;52.95;28.73;;;;;;;6.96;100.00;103233.09;5034345;28;20120;-77
2022/11/12 01:45:51;;;;;;;53.83;28.65;;;;;;;6.95;100.00;103231.38;5034383;28;20470;-77
2022/11/12 01:48:40;;;;;;;52.28;28.45;;;;;;;6.95;100.00;103227.88;5034286;28;20033;-77
2022/11/12 01:51:06;;;;;;;54.80;29.35;;;;;;;6.97;100.00;103226.03;5034679;28;20108;-77
2022/11/12 01:53:37;;;;;;;54.67;29.00;;;;;;;6.97;100.00;103226.03;5034398;28;20030;-78
2022/11/12 01:56:04;;;;;;;50.35;28.15;;;;;;;6.96;100.00;103225.16;5034031;28;20036;-77
2022/11/12 01:58:32;;;;;;;50.55;29.77;;;;;;;6.96;100.00;103229.59;5032841;28;20064;-77
2022/11/12 02:00:59;;;;;;;53.33;29.90;;;;;;;6.97;100.00;103226.91;5034380;28;20423;-77
2022/11/12 02:03:24;;;;;;;54.85;30.42;;;;;;;6.96;100.00;103227.81;5034011;28;20033;-78
2022/11/12 02:05:55;;;;;;;47.83;28.42;;;;;;;6.95;100.00;103218.13;5033796;28;20033;-77
2022/11/12 02:08:22;;;;;;;47.95;26.52;;;;;;;6.94;100.00;103219.09;5032933;28;20029;-77
2022/11/12 02:10:49;;;;;;;47.10;28.48;;;;;;;6.94;100.00;103220.84;5032563;28;20025;-78
2022/11/12 02:15:58;;;;;;;45.75;25.95;;;;;;;6.92;100.00;103206.81;5034824;28;20103;-78
2022/11/12 02:18:24;;;;;;;43.80;25.98;;;;;;;6.90;100.00;103201.59;5033998;28;20405;-78
2022/11/12 02:20:57;;;;;;;40.42;25.33;;;;;;;6.88;100.00;103204.28;5033669;28;20065;-77
2022/11/12 02:23:23;;;;;;;42.70;25.40;;;;;;;6.88;100.00;103200.75;5034240;28;20057;-77
2022/11/12 02:25:48;;;;;;;45.40;25.15;;;;;;;6.87;100.00;103185.81;5034036;28;20044;-77
2022/11/12 02:28:15;;;;;;;47.80;26.25;;;;;;;6.86;100.00;103197.31;5033954;28;20033;-78
2022/11/12 02:30:47;;;;;;;42.83;25.15;;;;;;;6.86;100.00;103194.66;5033465;28;20033;-78
2022/11/12 02:33:12;;;;;;;44.50;24.48;;;;;;;6.85;100.00;103188.53;5033594;28;20171;-77
2022/11/12 02:35:38;;;;;;;42.92;24.33;;;;;;;6.86;100.00;103192.88;5033826;28;20060;-78
2022/11/12 02:38:04;;;;;;;40.53;24.23;;;;;;;6.86;100.00;103190.22;5033624;28;20033;-77
2022/11/12 02:40:29;;;;;;;43.50;24.23;;;;;;;6.87;100.00;103186.66;5033792;28;20034;-77
2022/11/12 02:42:55;;;;;;;42.08;24.10;;;;;;;6.88;100.00;103198.09;5033680;28;20040;-77
2022/11/12 02:45:20;;;;;;;43.55;24.90;;;;;;;6.88;100.00;103188.41;5033104;28;20470;-76
2022/11/12 02:47:45;;;;;;;46.35;25.08;;;;;;;6.87;100.00;103191.09;5033615;28;20483;-78
2022/11/12 02:50:11;;;;;;;48.60;25.30;;;;;;;6.91;100.00;103179.47;5033655;28;20042;-77
2022/11/12 02:52:38;;;;;;;47.75;25.63;;;;;;;6.91;100.00;103179.47;5033714;28;20044;-77
2022/11/12 02:55:05;;;;;;;44.45;25.10;;;;;;;6.94;100.00;103186.44;5033335;28;20040;-78
2022/11/12 02:57:30;;;;;;;47.15;26.00;;;;;;;6.94;100.00;103183.78;5033269;28;20030;-78
2022/11/12 02:59:56;;;;;;;49.80;26.83;;;;;;;6.93;100.00;103182.94;5032928;28;20386;-78
2022/11/12 03:02:21;;;;;;;49.65;26.25;;;;;;;6.94;100.00;103182.03;5034056;28;20129;-77
2022/11/12 03:04:46;;;;;;;52.78;26.30;;;;;;;6.96;100.00;103180.16;5033143;28;20080;-77
2022/11/12 03:07:12;;;;;;;60.03;28.35;;;;;;;6.96;100.00;103185.47;5033250;28;20039;-78
2022/11/12 03:09:37;;;;;;;63.50;29.15;;;;;;;6.96;100.00;103188.13;5033453;28;20120;-78
2022/11/12 03:12:02;;;;;;;56.42;28.20;;;;;;;6.96;100.00;103190.75;5035992;28;20125;-79
2022/11/12 03:14:28;;;;;;;55.15;28.33;;;;;;;6.96;100.00;103185.47;5037020;28;20025;-79
2022/11/12 03:16:53;;;;;;;54.08;28.27;;;;;;;6.97;100.00;103192.50;5036126;28;20037;-78
2022/11/12 03:19:18;;;;;;;53.20;27.70;;;;;;;6.95;100.00;103181.09;5037482;28;20072;-78
2022/11/12 03:21:44;;;;;;;52.65;27.58;;;;;;;6.95;100.00;103178.44;5037487;28;20060;-79
2022/11/12 03:24:09;;;;;;;52.60;27.42;;;;;;;6.94;100.00;103178.50;5037114;28;20113;-78
2022/11/12 03:26:35;;;;;;;50.80;26.75;;;;;;;6.94;100.00;103178.50;5037615;28;20493;-78
2022/11/12 03:29:00;;;;;;;54.60;27.42;;;;;;;6.94;100.00;103183.78;5035488;28;20039;-78
2022/11/12 03:31:25;;;;;;;53.38;28.27;;;;;;;6.94;100.00;103181.13;5037141;28;20296;-78
2022/11/12 03:33:51;;;;;;;57.53;28.38;;;;;;;6.93;100.00;103182.94;5035767;28;20030;-78
2022/11/12 03:36:16;;;;;;;60.40;29.17;;;;;;;6.93;100.00;103185.59;5037550;28;20025;-78
2022/11/12 03:38:41;;;;;;;56.13;27.40;;;;;;;6.93;100.00;103187.38;5036953;28;20034;-78
2022/11/12 03:41:07;;;;;;;62.97;28.10;;;;;;;6.93;100.00;103187.38;5035361;28;20116;-78
2022/11/12 03:43:32;;;;;;;58.97;28.85;;;;;;;6.93;100.00;103182.94;5036654;28;20111;-79
2022/11/12 03:45:58;;;;;;;61.20;29.05;;;;;;;6.92;100.00;103189.13;5037017;28;20386;-79
2022/11/12 03:48:23;;;;;;;62.05;30.38;;;;;;;6.92;100.00;103194.44;5035494;28;20160;-78
2022/11/12 03:50:48;;;;;;;56.45;28.40;;;;;;;6.93;100.00;103197.97;5036537;28;20381;-79
2022/11/12 03:53:14;;;;;;;56.60;27.63;;;;;;;6.94;100.00;103191.72;5036759;28;20061;-78
2022/11/12 03:55:39;;;;;;;60.55;28.58;;;;;;;6.94;100.00;103184.66;5036781;28;20462;-78
2022/11/12 03:58:05;;;;;;;55.90;27.17;;;;;;;6.95;100.00;103188.16;5036422;28;20521;-78
2022/11/12 04:00:30;;;;;;;59.70;28.77;;;;;;;6.96;100.00;103197.84;5036046;28;20057;-78
2022/11/12 04:02:56;;;;;;;59.47;29.40;;;;;;;6.97;100.00;103200.44;5036557;28;20112;-79
2022/11/12 04:10:57;;;;;;;60.88;28.27;;;;;;;6.99;100.00;103195.94;5036941;28;20156;-79
2022/11/12 04:13:28;;;;;;;61.63;28.10;;;;;;;7.00;100.00;103202.09;5036902;28;20408;-80
2022/11/12 04:21:49;;;;;;;65.35;28.75;;;;;;;7.02;100.00;103189.66;5036595;28;20110;-78
2022/11/12 04:27:13;;;;;;;55.72;25.63;;;;;;;7.03;100.00;103194.03;5036419;28;20394;-79
2022/11/12 04:32:22;;;;;;;60.72;26.40;;;;;;;7.02;100.00;103197.63;5035032;28;20056;-79
2022/11/12 04:34:48;;;;;;;57.22;25.73;;;;;;;7.01;100.00;103191.44;5034553;28;20037;-78
2022/11/12 04:37:14;;;;;;;50.90;23.52;;;;;;;7.00;100.00;103188.84;5036529;28;20128;-78
2022/11/12 04:39:39;;;;;;;50.85;23.17;;;;;;;6.99;100.00;103192.44;5035828;28;20048;-78
2022/11/12 04:45:04;;;;;;;46.03;21.63;;;;;;;6.86;100.00;103192.03;5035998;28;20060;-78
2022/11/12 04:47:45;;;;;;;42.17;21.80;;;;;;;6.81;100.00;103199.28;5035706;28;20076;-78
2022/11/12 04:50:16;;;;;;;40.15;21.42;;;;;;;6.76;100.00;103203.88;5036080;28;20067;-77
2022/11/12 04:52:41;;;;;;;45.63;22.58;;;;;;;6.72;100.00;103192.53;5035416;28;20069;-78
2022/11/12 04:55:08;;;;;;;45.30;22.77;;;;;;;6.68;100.00;103191.78;5035325;28;20095;-78
2022/11/12 04:57:34;;;;;;;47.00;22.10;;;;;;;6.59;100.00;103184.19;5051254;28;20417;-79
2022/11/12 04:59:59;;;;;;;39.95;21.65;;;;;;;6.55;100.00;103171.13;5035131;28;20425;-78
2022/11/12 05:02:24;;;;;;;38.50;21.40;;;;;;;6.46;100.00;103172.31;5034880;28;20041;-77
2022/11/12 05:04:50;;;;;;;39.67;21.13;;;;;;;6.40;100.00;103170.75;5034725;28;20442;-77
2022/11/12 05:07:16;;;;;;;47.78;21.33;;;;;;;6.35;100.00;103162.13;5035245;28;20451;-77
2022/11/12 05:09:41;;;;;;;45.10;21.30;;;;;;;6.32;100.00;103159.59;5035695;28;20064;-77
2022/11/12 05:12:08;;;;;;;44.65;22.00;;;;;;;6.29;100.00;103157.06;5035072;28;20108;-77
2022/11/12 05:14:34;;;;;;;58.70;21.30;;;;;;;6.26;100.00;103152.72;5034986;28;20037;-80
2022/11/12 05:17:00;;;;;;;83.15;24.05;;;;;;;6.23;100.00;103157.28;5035473;28;20036;-80
2022/11/12 05:19:25;;;;;;;48.45;21.63;;;;;;;6.22;100.00;103150.25;5034902;28;20481;-79
2022/11/12 05:22:06;;;;;;;51.50;21.85;;;;;;;6.22;100.00;103155.53;5035085;28;20523;-77
2022/11/12 05:24:39;;;;;;;45.08;21.17;;;;;;;6.20;100.00;103155.59;5035067;28;20041;-78
2022/11/12 05:27:15;;;;;;;165.30;22.90;;;;;;;6.15;100.00;103158.41;5034773;28;20033;-80
2022/11/12 05:29:41;;;;;;;126.80;23.10;;;;;;;6.12;100.00;103155.00;5035481;28;20028;-78
2022/11/12 05:32:09;;;;;;;161.02;22.00;;;;;;;6.10;100.00;103167.41;5033402;28;20480;-78
2022/11/12 05:34:34;;;;;;;119.85;22.27;;;;;;;6.06;100.00;103164.03;5033876;28;20086;-78
2022/11/12 05:37:04;;;;;;;78.72;21.05;;;;;;;6.03;100.00;103164.13;5034742;28;20120;-78
2022/11/12 05:39:30;;;;;;;60.67;21.13;;;;;;;6.00;100.00;103170.38;5034669;28;20068;-77
2022/11/12 05:41:56;;;;;;;88.18;21.92;;;;;;;5.99;100.00;103162.50;5034859;28;20029;-78
2022/11/12 05:44:22;;;;;;;106.40;21.83;;;;;;;5.97;100.00;103165.19;5034590;28;20021;-78
2022/11/12 05:46:47;;;;;;;57.03;20.67;;;;;;;5.96;100.00;103163.41;5034338;28;20022;-78
2022/11/12 05:49:13;;;;;;;100.60;19.80;;;;;;;5.95;100.00;103164.31;5034418;28;20035;-77
2022/11/12 05:51:38;;;;;;;43.05;18.33;;;;;;;5.90;100.00;103158.34;5034142;28;20045;-77
2022/11/12 05:54:04;;;;;;;53.10;17.88;;;;;;;5.87;100.00;103161.09;5034300;28;20040;-84
2022/11/12 05:56:30;;;;;;;45.13;19.10;;;;;;;5.86;100.00;103161.16;5034269;28;20025;-77
2022/11/12 05:58:56;;;;;;;121.20;17.45;;;;;;;5.83;100.00;103167.41;5034092;28;20036;-78
2022/11/12 06:01:21;;;;;;;45.08;17.40;;;;;;;5.76;100.00;103165.88;5034505;28;20049;-78
2022/11/12 06:03:47;;;;;;;135.35;16.90;;;;;;;5.73;100.00;103166.84;5033944;28;20057;-78
2022/11/12 06:06:12;;;;;;;87.20;18.50;;;;;;;5.70;100.00;103161.63;5034651;28;20040;-78
2022/11/12 06:08:38;;;;;;;97.30;18.48;;;;;;;5.68;100.00;103160.84;5034448;28;20121;-78
2022/11/12 06:11:03;;;;;;;130.90;17.75;;;;;;;5.65;100.00;103159.16;5034414;28;20087;-77
2022/11/12 06:13:29;;;;;;;77.65;17.50;;;;;;;5.62;100.00;103161.03;5034131;28;20478;-77
2022/11/12 06:15:55;;;;;;;75.07;18.45;;;;;;;5.59;100.00;103153.22;5033873;28;20060;-77
2022/11/12 06:18:21;;;;;;;64.80;17.73;;;;;;;5.58;100.00;103159.41;5034255;28;20116;-77
2022/11/12 06:21:32;;;;;;;60.10;18.58;;;;;;;5.59;100.00;103164.63;5033790;28;20030;-77
2022/11/12 06:23:33;;;;;;;75.38;17.92;;;;;;;5.56;100.00;103162.09;5039832;28;20042;-77
2022/11/12 06:25:58;;;;;;;42.05;18.45;;;;;;;5.55;100.00;103164.78;5033741;28;20037;-77
2022/11/12 06:28:24;;;;;;;73.30;19.25;;;;;;;5.50;100.00;103172.00;5033498;28;20037;-76
2022/11/12 06:30:49;;;;;;;96.85;19.10;;;;;;;5.49;100.00;103176.41;5033439;28;20079;-77
2022/11/12 06:33:15;;;;;;;57.63;18.45;;;;;;;5.43;100.00;103174.84;5032596;28;20083;-77
2022/11/12 06:35:40;;;;;;;59.72;17.92;;;;;;;5.42;100.00;103177.50;5033410;28;20039;-80
2022/11/12 06:38:05;;;;;;;61.17;17.80;;;;;;;5.38;100.00;103168.84;5033742;28;20039;-78
2022/11/12 06:40:31;;;;;;;64.07;17.45;;;;;;;5.33;100.00;103183.97;5033515;28;20065;-77
2022/11/12 06:42:57;;;;;;;50.00;16.42;;;;;;;5.28;100.00;103176.19;5033152;28;20034;-77
2022/11/12 06:45:23;;;;;;;47.22;17.38;;;;;;;5.20;100.00;103180.84;5032551;28;20061;-77
2022/11/12 06:47:48;;;;;;;60.55;16.42;;;;;;;5.14;100.00;103181.03;5032912;28;20163;-76
2022/11/12 06:50:14;;;;;;;46.53;16.98;;;;;;;5.07;100.00;103182.09;5034999;28;20083;-77
2022/11/12 06:52:39;;;;;;;46.65;17.45;;;;;;;5.03;100.00;103183.09;5033308;28;20040;-76
2022/11/12 06:55:05;;;;;;;46.20;17.42;;;;;;;4.98;100.00;103182.38;5032837;28;20367;-77
2022/11/12 06:57:30;;;;;;;47.53;17.77;;;;;;;4.91;100.00;103190.50;5032141;28;20087;-77
2022/11/12 06:59:55;;;;;;;50.58;17.75;;;;;;;4.87;100.00;103186.19;5033110;28;20410;-77
2022/11/12 07:02:21;;;;;;;43.15;17.75;;;;;;;4.84;100.00;103198.63;5033286;28;20085;-79
2022/11/12 07:04:46;;;;;;;33.13;18.92;;;;;;;4.80;100.00;103200.47;5033368;28;20029;-79
2022/11/12 07:07:11;;;;;;;59.55;18.42;;;;;;;4.77;100.00;103190.88;5033825;28;20065;-77
2022/11/12 07:09:37;;;;;;;43.78;18.90;;;;;;;4.73;100.00;103198.91;5033351;28;20112;-76
2022/11/12 07:12:02;;;;;;;33.33;17.48;;;;;;;4.69;100.00;103195.50;5034224;28;20041;-78
2022/11/12 07:14:28;;;;;;;35.63;18.52;;;;;;;4.68;100.00;103200.81;5033502;28;20052;-79
2022/11/12 07:16:53;;;;;;;34.58;18.23;;;;;;;4.66;100.00;103195.59;5032935;28;20033;-79
2022/11/12 07:19:18;;;;;;;36.00;18.95;;;;;;;4.64;100.00;103201.81;5037006;28;20061;-80
2022/11/12 07:21:43;;;;;;;35.80;18.98;;;;;;;4.63;100.00;103203.59;5032952;28;20026;-79
2022/11/12 07:24:09;;;;;;;47.03;18.25;;;;;;;4.62;100.00;103199.22;5032664;28;20087;-79
2022/11/12 07:26:34;;;;;;;37.03;18.35;;;;;;;4.61;100.00;103197.47;5032686;28;20095;-79
2022/11/12 07:29:00;;;;;;;35.17;18.52;;;;;;;4.59;100.00;103201.94;5032568;28;20037;-80
2022/11/12 07:31:25;;;;;;;36.45;18.45;;;;;;;4.58;100.00;103203.72;5031160;28;20061;-79
2022/11/12 07:33:50;;;;;;;48.28;19.10;;;;;;;4.58;100.00;103201.09;5032448;28;20041;-80
2022/11/12 07:36:19;;;;;;;36.10;18.20;;;;;;;4.58;100.00;103202.84;5030884;28;20418;-79
2022/11/12 07:38:45;;;;;;;44.03;18.23;;;;;;;4.58;100.00;103202.84;5032836;28;20033;-80
2022/11/12 07:41:13;;;;;;;36.25;19.38;;;;;;;4.58;100.00;103201.09;5032617;28;20063;-79
2022/11/12 07:43:41;;;;;;;34.47;19.52;;;;;;;4.61;100.00;103196.63;5032599;28;20145;-79
2022/11/12 07:46:10;;;;;;;32.60;19.20;;;;;;;4.63;100.00;103200.06;5033058;28;20171;-79
2022/11/12 07:48:36;;;;;;;31.83;19.50;;;;;;;4.65;100.00;103199.13;5032871;28;20025;-78
2022/11/12 07:51:05;;;;;;;33.53;19.55;;;;;;;4.69;100.00;103205.19;5032908;28;20105;-78
2022/11/12 07:53:30;;;;;;;37.97;19.75;;;;;;;4.73;100.00;103205.06;5032693;28;20052;-79
2022/11/12 07:55:58;;;;;;;36.22;20.33;;;;;;;4.80;100.00;103207.53;5032577;28;20398;-79
2022/11/12 07:58:25;;;;;;;36.30;19.80;;;;;;;4.87;100.00;103217.00;5036112;28;20377;-79
2022/11/12 08:00:51;;;;;;;34.35;19.70;;;;;;;4.92;100.00;103209.81;5036377;28;20075;-79
2022/11/12 08:03:17;;;;;;;37.05;19.40;;;;;;;4.99;100.00;103214.00;5036703;28;20040;-79
2022/11/12 08:05:42;;;;;;;35.33;19.42;;;;;;;5.07;100.00;103212.00;5036414;28;20029;-79
2022/11/12 08:08:08;;;;;;;34.22;19.52;;;;;;;5.13;100.00;103210.94;5035837;28;20112;-80
2022/11/12 08:10:33;;;;;;;35.00;19.45;;;;;;;5.24;100.00;103213.25;5034923;28;20033;-79
2022/11/12 08:12:59;;;;;;;31.67;19.15;;;;;;;5.33;100.00;103210.38;5036610;28;20095;-80
2022/11/12 08:15:24;;;;;;;29.70;18.00;;;;;;;5.43;100.00;103214.47;5035688;28;20029;-80
2022/11/12 08:17:49;;;;;;;32.50;17.70;;;;;;;5.49;100.00;103218.66;5036600;28;20021;-79
2022/11/12 08:20:15;;;;;;;31.60;18.75;;;;;;;5.56;100.00;103214.91;5035919;28;20029;-79
2022/11/12 08:22:40;;;;;;;29.50;17.52;;;;;;;5.63;100.00;103208.53;5036000;28;20042;-79
2022/11/12 08:25:06;;;;;;;32.42;17.67;;;;;;;5.71;100.00;103218.84;5036414;28;20030;-79
2022/11/12 08:27:32;;;;;;;31.15;17.17;;;;;;;5.81;100.00;103220.28;5036039;28;20348;-79
2022/11/12 08:29:58;;;;;;;25.80;16.50;;;;;;;5.92;100.00;103219.94;5035973;28;20041;-81
2022/11/12 08:32:23;;;;;;;24.42;14.73;;;;;;;5.97;100.00;103218.06;5035739;28;20474;-81
2022/11/12 08:34:49;;;;;;;25.02;15.32;;;;;;;6.04;100.00;103223.13;5035905;28;20037;-79
2022/11/12 08:37:14;;;;;;;23.02;15.77;;;;;;;6.12;100.00;103218.44;5035831;28;20040;-79
2022/11/12 08:39:40;;;;;;;26.48;15.65;;;;;;;6.24;100.00;103217.16;5035734;28;20167;-79
2022/11/12 08:42:05;;;;;;;23.42;15.32;;;;;;;6.34;100.00;103219.44;5035735;28;20056;-78
2022/11/12 08:44:30;;;;;;;22.45;14.40;;;;;;;6.46;100.00;103223.41;5035987;28;20044;-78
2022/11/12 08:46:56;;;;;;;19.02;14.00;;;;;;;6.56;100.00;103218.69;5036217;28;20033;-79
2022/11/12 08:49:21;;;;;;;21.05;13.82;;;;;;;6.64;100.00;103226.34;5034242;28;20128;-80
2022/11/12 08:51:47;;;;;;;22.20;14.93;;;;;;;6.73;100.00;103219.84;5035635;28;20053;-80
2022/11/12 08:54:12;;;;;;;20.67;13.70;;;;;;;6.81;100.00;103220.44;5035590;28;20065;-80
2022/11/12 08:56:38;;;;;;;18.63;13.05;;;;;;;6.93;100.00;103222.63;5033997;28;20442;-79
2022/11/12 08:59:04;;;;;;;18.95;12.95;;;;;;;7.02;100.00;103211.69;5035354;28;20061;-80
2022/11/12 09:01:30;;;;;;;18.25;12.90;;;;;;;7.07;100.00;103212.38;5035224;28;20390;-79
2022/11/12 09:03:55;;;;;;;19.17;12.75;;;;;;;7.16;100.00;103210.31;5035130;28;20033;-79
2022/11/12 09:06:21;;;;;;;18.23;13.13;;;;;;;7.27;100.00;103213.44;5035113;28;20026;-80
2022/11/12 09:08:46;;;;;;;17.25;11.60;;;;;;;7.37;100.00;103225.34;5034742;28;20037;-80
2022/11/12 09:11:12;;;;;;;16.80;12.32;;;;;;;7.46;100.00;103225.94;5035007;28;20038;-79
2022/11/12 09:13:37;;;;;;;15.80;11.85;;;;;;;7.52;100.00;103221.25;5034704;28;20038;-79
2022/11/12 09:16:05;;;;;;;15.52;11.25;;;;;;;7.59;100.00;103227.19;5035026;28;20041;-79
2022/11/12 09:18:31;;;;;;;13.02;10.38;;;;;;;7.68;100.00;103220.66;5035035;28;20029;-78
2022/11/12 09:21:06;;;;;;;14.18;11.18;;;;;;;7.77;100.00;103221.13;5050024;28;20465;-79
2022/11/12 09:23:35;;;;;;;14.30;10.55;;;;;;;7.82;100.00;103220.09;5035357;28;20033;-79
2022/11/12 09:26:01;;;;;;;13.32;10.90;;;;;;;7.92;100.00;103214.31;5035603;28;20033;-80
2022/11/12 09:28:27;;;;;;;15.60;10.25;;;;;;;8.04;100.00;103212.09;5035685;28;20060;-81
2022/11/12 09:30:53;;;;;;;15.23;11.15;;;;;;;8.16;100.00;103213.38;5035295;28;20454;-79
2022/11/12 09:33:28;;;;;;;14.60;10.15;;;;;;;8.27;100.00;103211.09;5034577;28;20029;-80
2022/11/12 09:35:53;;;;;;;13.52;10.25;;;;;;;8.39;100.00;103210.59;5035274;28;20116;-80
2022/11/12 09:38:19;;;;;;;16.67;10.10;;;;;;;8.49;100.00;103205.78;5034420;28;20120;-81
2022/11/12 09:40:58;;;;;;;13.98;10.77;;;;;;;8.60;100.00;103200.00;5034344;28;20069;-79
2022/11/12 09:43:26;;;;;;;14.70;9.80;;;;;;;8.72;100.00;103207.41;5034908;28;20025;-79
2022/11/12 09:45:55;;;;;;;13.77;9.60;;;;;;;8.84;100.00;103211.31;5034555;28;20021;-79
2022/11/12 09:48:25;;;;;;;18.67;9.77;;;;;;;8.97;100.00;103211.59;5034503;28;20458;-79
2022/11/12 09:51:09;;;;;;;15.00;9.98;;;;;;;9.08;100.00;103211.97;5034960;28;20131;-80
2022/11/12 09:53:52;;;;;;;13.60;9.85;;;;;;;9.20;100.00;103210.53;5034499;28;20033;-80
2022/11/12 09:56:20;;;;;;;13.20;9.63;;;;;;;9.32;100.00;103206.44;5034629;28;20052;-80
2022/11/12 09:58:46;;;;;;;13.57;9.93;;;;;;;9.43;100.00;103211.22;5034608;28;20030;-80
2022/11/12 10:01:23;;;;;;;15.48;9.77;;;;;;;9.56;100.00;103208.84;5034497;28;20057;-79
2022/11/12 10:04:11;;;;;;;12.40;9.18;;;;;;;9.65;100.00;103216.38;5034632;28;20112;-79
2022/11/12 10:06:50;;;;;;;14.90;10.18;;;;;;;9.76;100.00;103208.72;5034450;28;20034;-81
2022/11/12 10:09:21;;;;;;;13.43;9.32;;;;;;;9.83;100.00;103218.13;5034491;28;20108;-79
2022/11/12 10:18:16;;;;;;;16.50;10.25;;;;;;;10.31;100.00;103213.03;5034661;28;20171;-79
2022/11/12 10:20:51;;;;;;;10.82;9.35;;;;;;;10.45;100.00;103207.06;5033637;28;20052;-80
2022/11/12 10:23:26;;;;;;;15.38;9.63;;;;;;;10.66;100.00;103209.50;5034009;28;20034;-78
2022/11/12 10:25:55;;;;;;;15.25;10.00;;;;;;;10.87;100.00;103215.50;5033801;28;20034;-80
2022/11/12 10:28:41;;;;;;;16.08;10.25;;;;;;;10.92;100.00;103219.63;5033652;28;20030;-78
2022/11/12 10:31:18;;;;;;;14.68;9.60;;;;;;;10.97;100.00;103219.38;5033962;28;20029;-78
2022/11/12 10:33:44;;;;;;;12.52;9.38;;;;;;;11.06;100.00;103212.69;5033664;28;20028;-79
2022/11/12 10:36:32;;;;;;;13.07;8.80;;;;;;;11.20;100.00;103214.59;5033599;28;20030;-78
2022/11/12 10:38:58;;;;;;;11.57;8.30;;;;;;;11.39;100.00;103206.41;5033423;28;20037;-79
2022/11/12 10:41:30;;;;;;;12.90;8.48;;;;;;;11.58;100.00;103215.06;5033431;28;20041;-79
2022/11/12 10:44:00;;;;;;;11.23;8.00;;;;;;;11.72;100.00;103221.44;5033461;28;20030;-79
2022/11/12 10:46:28;;;;;;;11.18;8.07;;;;;;;11.93;100.00;103216.72;5033862;28;20040;-79
2022/11/12 10:48:56;;;;;;;10.32;8.30;;;;;;;12.06;100.00;103216.84;5033304;28;20037;-79
2022/11/12 10:51:34;;;;;;;11.43;7.80;;;;;;;12.08;100.00;103213.13;5033738;28;20458;-79
2022/11/12 10:54:26;;;;;;;12.40;8.55;;;;;;;12.03;100.00;103219.69;5033563;28;20104;-79
2022/11/12 10:56:53;;;;;;;15.55;8.15;;;;;;;11.99;100.00;103211.84;5033433;28;20120;-79
2022/11/12 10:59:22;;;;;;;14.00;8.07;;;;;;;12.02;100.00;103210.81;5033369;28;20025;-80
2022/11/12 11:01:59;;;;;;;12.63;8.30;;;;;;;12.06;100.00;103209.72;5033390;28;20041;-79
2022/11/12 11:04:30;;;;;;;10.43;7.72;;;;;;;12.01;100.00;103208.25;5033761;28;20037;-78
2022/11/12 11:07:04;;;;;;;;;;;;;;;11.98;100.00;103204.78;5033689;28;20029;-79
2022/11/12 11:09:31;;;;;;;11.43;7.78;;;;;;;11.99;100.00;103203.84;5033331;28;20047;-78
2022/11/12 11:11:56;;;;;;;11.10;7.47;;;;;;;12.02;100.00;103201.94;5032842;28;20026;-78
2022/11/12 11:14:21;;;;;;;13.27;7.15;;;;;;;12.06;100.00;103199.03;5032968;28;20033;-79
2022/11/12 11:17:00;;;;;;;10.07;7.07;;;;;;;12.15;100.00;103192.25;5032996;28;20041;-80
2022/11/12 11:19:33;;;;;;;9.48;6.32;;;;;;;12.20;100.00;103190.19;5033613;28;20113;-79
2022/11/12 11:22:12;;;;;;;7.95;6.07;;;;;;;12.25;100.00;103190.75;5033408;28;20370;-80
2022/11/12 11:24:44;;;;;;;8.55;6.10;;;;;;;12.28;100.00;103184.38;5032879;28;20463;-80
2022/11/12 11:27:28;;;;;;;9.15;5.93;;;;;;;12.32;100.00;103188.59;5032753;28;20072;-78
2022/11/12 11:30:05;;;;;;;7.82;5.50;;;;;;;12.34;100.00;103184.00;5032715;28;20493;-78
2022/11/12 11:32:43;;;;;;;6.93;5.38;;;;;;;12.34;100.00;103181.34;5034936;28;20025;-77
2022/11/12 11:35:26;;;;;;;9.27;5.30;;;;;;;12.34;100.00;103173.31;5036861;28;20430;-78
2022/11/12 11:38:37;;;;;;;7.85;5.45;;;;;;;12.33;100.00;103168.94;5036513;28;20484;-80
2022/11/12 11:41:18;;;;;;;;;;;;;;;12.39;100.00;103162.38;5035780;28;20478;-78